Airfield :







YOU CAN JOIN US ON...

 
LOGIN :

Register | Disclaimer

   EN    FR    IT 

 









Legend :    VFR   Marginal VFR   IFR   Intensive IFR   Very Intensive IFR
Visi :
Ceiling :
>= 8 km
>= 3000ft
5 to 8 km
1000 to 3000 ft
1500m to 5 km
500 to 1000 ft
800 to 1500m
200 to 500 ft
< 800m
< 200 ft
Symbols :   Thunderstorms  Fog  Heavy snow  Heavy precipitations  Wind > 20 kt






- Airport Elevation : 586 ft
- IATA code : YRJ


CYRJ - Roberval

CURRENT METAR :
  • 220100Z 19008KT 25SM VCSH FEW025TCU FEW030 BKN095 23/19 A2929 RMK TCU2SC1AC4 SLP920 DENSITY ALT 2400FT

EXPIRED METARs :
  • 220000Z 18006G15KT 20SM FEW025TCU SCT035 SCT056 BKN072 BKN200 23/19 A2929 RMK TCU1SC2SC1AC2CI1 CI TR SLP919 DENSITY ALT 2500FT
  • 212300Z 19008KT 140V230 20SM FEW025TCU BKN030 BKN050 BKN080 BKN200 24/19 A2928 RMK TCU1SC5SC1AC1CI1 TCU TR CI TR SLP916 DENSITY ALT 2500FT

TAF TAF CYRJ
Valid from the 21 at 20:00 until the 22 at 02:00 UTC


211938Z 2120/2202 15012G22KT P6SM BKN040 OVC070
TEMPO 2120/2202 4SM -SHRA BR BKN020 OVC070
PROB30 2120/2124 VRB15G25KT 2SM TSRA BKN020CB RMK NXT FCST WILL BE ISSUED AT 221145Z
CZUL FIR / North America



MET'MAP, your aeronautical weather chart ! - Copyright ORBIFLY December 2007 - Disclaimer

ORBIFLY MET'MAP TEAM :

Programming & Development : Alexandra Zaïnal
Concept & original design : Baudouin d'Aumeries
Assistance for programming : Marc-Olivier Méhu
Technical & hardware support : Manuel Goepfert

Contact : metmap@orbifly.com




SOURCES & CREDITS :

   NOAA